Time;durP1;ratioP1;P1;durP2;ratioP2;P2;SDS_P1;SDS_P2;PMS_P1;PMS_P2;Temp;Humidity;BMP_temperature;BMP_pressure;BME280_temperature;BME280_humidity;BME280_pressure;Samples;Min_cycle;Max_cycle;Signal;HPM_P1;HPM_P2
2023/10/20 00:01:16;;;;;;;;;;;;;;;;;;5073398;28;19985;-72
2023/10/20 00:03:42;;;;;;;;;;;;;;;;;;5073136;28;20005;-72
2023/10/20 00:06:08;;;;;;;;;;;;;;;;;;5073087;28;20036;-72
2023/10/20 00:08:34;;;;;;;;;;;;;;;;;;5073141;28;20571;-72
2023/10/20 00:11:00;;;;;;;;;;;;;;;;;;5073172;28;20017;-72
2023/10/20 00:13:26;;;;;;;;;;;;;;;;;;5073138;28;20430;-71
2023/10/20 00:15:52;;;;;;;;;;;;;;;;;;5073025;28;20039;-71
2023/10/20 00:18:18;;;;;;;;;;;;;;;;;;5072980;28;19989;-71
2023/10/20 00:20:44;;;;;;;;;;;;;;;;;;5072853;28;19993;-71
2023/10/20 00:23:10;;;;;;;;;;;;;;;;;;5073052;28;19997;-71
2023/10/20 00:25:37;;;;;;;;;;;;;;;;;;5072797;28;20437;-70
2023/10/20 00:28:03;;;;;;;;;;;;;;;;;;5072735;28;20088;-71
2023/10/20 00:30:29;;;;;;;;;;;;;;;;;;5072967;28;20437;-70
2023/10/20 00:32:56;;;;;;;;;;;;;;;;;;5072658;28;19989;-70
2023/10/20 00:35:22;;;;;;;;;;;;;;;;;;5072754;28;20485;-71
2023/10/20 00:37:48;;;;;;;;;;;;;;;;;;5072930;28;20043;-71
2023/10/20 00:40:14;;;;;;;;;;;;;;;;;;5073106;28;19993;-71
2023/10/20 00:42:40;;;;;;;;;;;;;;;;;;5072781;28;20058;-71
2023/10/20 00:45:08;;;;;;;;;;;;;;;;;;5072679;28;19989;-71
2023/10/20 00:47:35;;;;;;;;;;;;;;;;;;5072257;28;20103;-70
2023/10/20 00:50:02;;;;;;;;;;;;;;;;;;5071680;28;20042;-71
2023/10/20 00:52:29;;;;;;;;;;;;;;;;;;5072695;28;19996;-71
2023/10/20 00:54:55;;;;;;;;;;;;;;;;;;5072794;28;20421;-74
2023/10/20 00:57:21;;;;;;;;;;;;;;;;;;5072740;28;19989;-71
2023/10/20 00:59:48;;;;;;;;;;;;;;;;;;5072595;28;20084;-71
2023/10/20 01:02:14;;;;;;;;;;;;;;;;;;5072339;28;20028;-71
2023/10/20 01:04:40;;;;;;;;;;;;;;;;;;5072229;28;20453;-71
2023/10/20 01:07:06;;;;;;;;;;;;;;;;;;5072212;28;19992;-71
2023/10/20 01:09:32;;;;;;;;;;;;;;;;;;5072316;28;20067;-71
2023/10/20 01:11:58;;;;;;;;;;;;;;;;;;5072088;28;20449;-71
2023/10/20 01:14:24;;;;;;;;;;;;;;;;;;5071948;28;19996;-72
2023/10/20 01:16:49;;;;;;;;;;;;;;;;;;5071943;28;19989;-71
2023/10/20 01:19:15;;;;;;;;;;;;;;;;;;5071839;28;20055;-71
2023/10/20 01:21:42;;;;;;;;;;;;;;;;;;5072213;28;20081;-73
2023/10/20 01:24:07;;;;;;;;;;;;;;;;;;5071736;28;19993;-71
2023/10/20 01:26:33;;;;;;;;;;;;;;;;;;5071945;28;19991;-72
2023/10/20 01:28:59;;;;;;;;;;;;;;;;;;5071694;28;20036;-72
2023/10/20 01:31:25;;;;;;;;;;;;;;;;;;5071625;28;20009;-71
2023/10/20 01:33:51;;;;;;;;;;;;;;;;;;5071798;28;20016;-70
2023/10/20 01:36:17;;;;;;;;;;;;;;;;;;5071686;28;20094;-71
2023/10/20 01:38:44;;;;;;;;;;;;;;;;;;5071696;28;19992;-71
2023/10/20 01:41:10;;;;;;;;;;;;;;;;;;5071671;28;20091;-72
2023/10/20 01:43:36;;;;;;;;;;;;;;;;;;5071623;28;20028;-71
2023/10/20 01:46:02;;;;;;;;;;;;;;;;;;5071293;28;19989;-71
2023/10/20 01:48:28;;;;;;;;;;;;;;;;;;5071289;28;20120;-71
2023/10/20 01:50:54;;;;;;;;;;;;;;;;;;5071902;28;20079;-71
2023/10/20 01:53:20;;;;;;;;;;;;;;;;;;5071488;28;20043;-70
2023/10/20 01:55:46;;;;;;;;;;;;;;;;;;5071630;28;19989;-72
2023/10/20 01:58:12;;;;;;;;;;;;;;;;;;5071419;28;19989;-72
2023/10/20 02:00:38;;;;;;;;;;;;;;;;;;5071103;28;20012;-70
2023/10/20 02:03:04;;;;;;;;;;;;;;;;;;5053246;28;20033;-70
2023/10/20 02:05:30;;;;;;;;;;;;;;;;;;5071431;28;20001;-72
2023/10/20 02:07:57;;;;;;;;;;;;;;;;;;5071446;28;19985;-71
2023/10/20 02:10:23;;;;;;;;;;;;;;;;;;5071378;28;19989;-71
2023/10/20 02:12:49;;;;;;;;;;;;;;;;;;5071263;28;19992;-71
2023/10/20 02:15:15;;;;;;;;;;;;;;;;;;5071174;28;19990;-70
2023/10/20 02:17:41;;;;;;;;;;;;;;;;;;5071345;28;20033;-71
2023/10/20 02:20:07;;;;;;;;;;;;;;;;;;5071178;28;19989;-71
2023/10/20 02:22:33;;;;;;;;;;;;;;;;;;5071380;28;19993;-71
2023/10/20 02:24:59;;;;;;;;;;;;;;;;;;5071185;28;20533;-71
2023/10/20 02:27:25;;;;;;;;;;;;;;;;;;5071165;28;20015;-72
2023/10/20 02:29:51;;;;;;;;;;;;;;;;;;5071143;28;20017;-72
2023/10/20 02:32:17;;;;;;;;;;;;;;;;;;5071084;28;20000;-72
2023/10/20 02:34:43;;;;;;;;;;;;;;;;;;5071349;28;19989;-72
2023/10/20 02:37:12;;;;;;;;;;;;;;;;;;5071034;28;19985;-72
2023/10/20 02:39:38;;;;;;;;;;;;;;;;;;5070993;28;20076;-71
2023/10/20 02:42:04;;;;;;;;;;;;;;;;;;5070963;28;19989;-71
2023/10/20 02:44:31;;;;;;;;;;;;;;;;;;5070900;28;19992;-71
2023/10/20 02:46:57;;;;;;;;;;;;;;;;;;5070801;28;20607;-71
2023/10/20 02:49:24;;;;;;;;;;;;;;;;;;5070782;28;20014;-71
2023/10/20 02:51:50;;;;;;;;;;;;;;;;;;5070921;28;19989;-71
2023/10/20 02:54:16;;;;;;;;;;;;;;;;;;5070890;28;19997;-71
2023/10/20 02:56:42;;;;;;;;;;;;;;;;;;5070906;28;20369;-72
2023/10/20 02:59:08;;;;;;;;;;;;;;;;;;5071001;28;20074;-71
2023/10/20 03:01:34;;;;;;;;;;;;;;;;;;5071172;28;20046;-71
2023/10/20 03:04:00;;;;;;;;;;;;;;;;;;5070796;28;19990;-72
2023/10/20 03:06:26;;;;;;;;;;;;;;;;;;5070819;28;20027;-71
2023/10/20 03:08:52;;;;;;;;;;;;;;;;;;5070800;28;20524;-71
2023/10/20 03:11:18;;;;;;;;;;;;;;;;;;5070825;28;19989;-72
2023/10/20 03:13:44;;;;;;;;;;;;;;;;;;5074189;28;20035;-71
2023/10/20 03:16:10;;;;;;;;;;;;;;;;;;5074050;28;20035;-71
2023/10/20 03:18:36;;;;;;;;;;;;;;;;;;5074182;28;19992;-71
2023/10/20 03:21:02;;;;;;;;;;;;;;;;;;5074171;28;20024;-71
2023/10/20 03:23:28;;;;;;;;;;;;;;;;;;5074352;28;19985;-71
2023/10/20 03:25:54;;;;;;;;;;;;;;;;;;5074233;28;19990;-71
2023/10/20 03:28:19;;;;;;;;;;;;;;;;;;5073689;28;20029;-71
2023/10/20 03:30:46;;;;;;;;;;;;;;;;;;5074135;28;20126;-72
2023/10/20 03:33:12;;;;;;;;;;;;;;;;;;5074002;28;19993;-71
2023/10/20 03:35:38;;;;;;;;;;;;;;;;;;5073976;28;20357;-72
2023/10/20 03:38:04;;;;;;;;;;;;;;;;;;5073915;28;19992;-71
2023/10/20 03:40:37;;;;;;;;;;;;;;;;;;5073802;28;20035;-71
2023/10/20 03:43:03;;;;;;;;;;;;;;;;;;5073815;28;19989;-71
2023/10/20 03:45:29;;;;;;;;;;;;;;;;;;5073732;28;20046;-71
2023/10/20 03:47:55;;;;;;;;;;;;;;;;;;5073370;28;20032;-70
2023/10/20 03:50:21;;;;;;;;;;;;;;;;;;5073697;28;19993;-72
2023/10/20 03:52:48;;;;;;;;;;;;;;;;;;5073657;28;19996;-72
2023/10/20 03:55:14;;;;;;;;;;;;;;;;;;5073605;28;19992;-72
2023/10/20 03:57:40;;;;;;;;;;;;;;;;;;5073763;28;19993;-71
2023/10/20 04:00:27;;;;;;;;;;;;;;;;;;5073505;28;19992;-72
2023/10/20 04:02:53;;;;;;;;;;;;;;;;;;5055241;28;20075;-72
2023/10/20 04:05:19;;;;;;;;;;;;;;;;;;5073428;28;20059;-71
2023/10/20 04:07:45;;;;;;;;;;;;;;;;;;5055304;28;20467;-72
2023/10/20 04:10:12;;;;;;;;;;;;;;;;;;5073254;28;20046;-70
2023/10/20 04:12:39;;;;;;;;;;;;;;;;;;5073295;28;19985;-71
2023/10/20 04:15:05;;;;;;;;;;;;;;;;;;5073212;28;20001;-71
2023/10/20 04:17:31;;;;;;;;;;;;;;;;;;5073024;28;19989;-71
2023/10/20 04:19:57;;;;;;;;;;;;;;;;;;5073001;28;19996;-70
2023/10/20 04:22:24;;;;;;;;;;;;;;;;;;5072938;28;19989;-71
2023/10/20 04:24:50;;;;;;;;;;;;;;;;;;5072914;28;20012;-71
2023/10/20 04:27:38;;;;;;;;;;;;;;;;;;5072886;28;19992;-71
2023/10/20 04:54:40;;;;;;;;;;;;;;;;;;5072792;28;19995;-71
2023/10/20 05:00:36;;;;;;;;;;;;;;;;;;5072460;28;19991;-72
2023/10/20 05:02:42;;;;;;;;;;;;;;;;;;5063744;28;19993;-71
2023/10/20 05:05:22;;;;;;;;;;;;;;;;;;5072470;28;20005;-72
2023/10/20 05:07:52;;;;;;;;;;;;;;;;;;5072277;28;19992;-72
2023/10/20 05:10:18;;;;;;;;;;;;;;;;;;5072204;28;19989;-72
2023/10/20 05:12:44;;;;;;;;;;;;;;;;;;5071216;28;20156;-72
2023/10/20 05:15:12;;;;;;;;;;;;;;;;;;5071292;28;20071;-71
2023/10/20 05:17:38;;;;;;;;;;;;;;;;;;5071865;28;19985;-73
2023/10/20 05:20:13;;;;;;;;;;;;;;;;;;5071641;28;20072;-71
2023/10/20 05:22:39;;;;;;;;;;;;;;;;;;5071633;28;20083;-71
2023/10/20 05:25:06;;;;;;;;;;;;;;;;;;5071776;28;20505;-71
2023/10/20 05:27:32;;;;;;;;;;;;;;;;;;5071711;28;19989;-71
2023/10/20 05:29:57;;;;;;;;;;;;;;;;;;5071876;28;20017;-72
2023/10/20 05:32:23;;;;;;;;;;;;;;;;;;5071911;28;19989;-71
2023/10/20 05:34:54;;;;;;;;;;;;;;;;;;5071134;28;19992;-72
2023/10/20 05:37:23;;;;;;;;;;;;;;;;;;5071526;28;20034;-71
2023/10/20 05:39:49;;;;;;;;;;;;;;;;;;5071830;28;19985;-71
2023/10/20 05:42:16;;;;;;;;;;;;;;;;;;5071736;28;20046;-72
2023/10/20 05:44:59;;;;;;;;;;;;;;;;;;5071400;28;19986;-71
2023/10/20 05:47:25;;;;;;;;;;;;;;;;;;5071356;28;20532;-73
2023/10/20 05:49:51;;;;;;;;;;;;;;;;;;5071663;28;20041;-72
2023/10/20 05:52:17;;;;;;;;;;;;;;;;;;5071437;28;19985;-72
2023/10/20 05:54:42;;;;;;;;;;;;;;;;;;5071468;28;20433;-71
2023/10/20 05:57:08;;;;;;;;;;;;;;;;;;5071432;28;19990;-71
2023/10/20 05:59:35;;;;;;;;;;;;;;;;;;5071397;28;20087;-72
2023/10/20 06:02:03;;;;;;;;;;;;;;;;;;5071567;28;20032;-71
2023/10/20 06:04:29;;;;;;;;;;;;;;;;;;5071457;28;20000;-70
2023/10/20 06:06:55;;;;;;;;;;;;;;;;;;5071619;28;19993;-69
2023/10/20 06:09:21;;;;;;;;;;;;;;;;;;5071460;28;20024;-69
2023/10/20 06:11:46;;;;;;;;;;;;;;;;;;5071530;28;19996;-69
2023/10/20 06:14:13;;;;;;;;;;;;;;;;;;5071624;28;19989;-69
2023/10/20 06:16:39;;;;;;;;;;;;;;;;;;5071145;28;20445;-70
2023/10/20 06:19:04;;;;;;;;;;;;;;;;;;5071379;28;19992;-69
2023/10/20 06:21:30;;;;;;;;;;;;;;;;;;5061444;28;19996;-68
2023/10/20 06:23:56;;;;;;;;;;;;;;;;;;5071229;28;19989;-70
2023/10/20 06:26:22;;;;;;;;;;;;;;;;;;5049980;28;20384;-68
2023/10/20 06:28:48;;;;;;;;;;;;;;;;;;5060510;28;20014;-70
2023/10/20 06:33:48;;;;;;;;;;;;;;;;;;5069142;28;19997;-69
2023/10/20 06:36:22;;;;;;;;;;;;;;;;;;5067752;28;19998;-69
2023/10/20 06:38:49;;;;;;;;;;;;;;;;;;5063082;28;20063;-71
2023/10/20 06:41:15;;;;;;;;;;;;;;;;;;5051181;28;20035;-70
2023/10/20 06:43:41;;;;;;;;;;;;;;;;;;5058919;28;20092;-69
2023/10/20 06:46:07;;;;;;;;;;;;;;;;;;5071087;28;20473;-69
2023/10/20 06:48:33;;;;;;;;;;;;;;;;;;5072864;28;20028;-69
2023/10/20 06:50:59;;;;;;;;;;;;;;;;;;5073013;28;19994;-68
2023/10/20 06:53:25;;;;;;;;;;;;;;;;;;5074820;28;20544;-69
2023/10/20 06:55:51;;;;;;;;;;;;;;;;;;5073864;28;19994;-69
2023/10/20 06:58:20;;;;;;;;;;;;;;;;;;5074180;28;20000;-69
2023/10/20 07:00:46;;;;;;;;;;;;;;;;;;5074693;28;19993;-69
2023/10/20 07:03:12;;;;;;;;;;;;;;;;;;5072682;28;19997;-69
2023/10/20 07:05:38;;;;;;;;;;;;;;;;;;5073990;28;20005;-69
2023/10/20 07:08:04;;;;;;;;;;;;;;;;;;5073615;28;20000;-69
2023/10/20 07:10:30;;;;;;;;;;;;;;;;;;5074360;28;20042;-70
2023/10/20 07:12:56;;;;;;;;;;;;;;;;;;5071314;28;19994;-68
2023/10/20 07:15:22;;;;;;;;;;;;;;;;;;5074243;28;20062;-69
2023/10/20 07:17:48;;;;;;;;;;;;;;;;;;5065044;28;20004;-69
2023/10/20 07:20:14;;;;;;;;;;;;;;;;;;5070884;28;20001;-69
2023/10/20 07:22:40;;;;;;;;;;;;;;;;;;5074213;28;19985;-70
2023/10/20 07:25:08;;;;;;;;;;;;;;;;;;5074086;28;19997;-70
2023/10/20 07:27:33;;;;;;;;;;;;;;;;;;5074228;28;19993;-68
2023/10/20 07:29:59;;;;;;;;;;;;;;;;;;5073915;28;20009;-69
2023/10/20 07:32:25;;;;;;;;;;;;;;;;;;5073972;28;20039;-69
2023/10/20 07:34:51;;;;;;;;;;;;;;;;;;5074271;28;20008;-68
2023/10/20 07:37:17;;;;;;;;;;;;;;;;;;5074197;28;20079;-69
2023/10/20 07:39:43;;;;;;;;;;;;;;;;;;5073990;28;20171;-69
2023/10/20 07:42:09;;;;;;;;;;;;;;;;;;5074115;28;20077;-71
2023/10/20 07:44:35;;;;;;;;;;;;;;;;;;5073891;28;19990;-70
2023/10/20 07:47:01;;;;;;;;;;;;;;;;;;5073364;28;20485;-70
2023/10/20 07:49:27;;;;;;;;;;;;;;;;;;5073390;28;20066;-68
2023/10/20 07:51:53;;;;;;;;;;;;;;;;;;5073642;28;19987;-69
2023/10/20 07:54:20;;;;;;;;;;;;;;;;;;5073553;28;19989;-70
2023/10/20 07:56:47;;;;;;;;;;;;;;;;;;5073449;28;20000;-70
2023/10/20 07:59:13;;;;;;;;;;;;;;;;;;5073043;28;20042;-69
2023/10/20 08:01:38;;;;;;;;;;;;;;;;;;5073792;28;19993;-69
2023/10/20 08:04:04;;;;;;;;;;;;;;;;;;5073653;28;20433;-69
2023/10/20 08:06:30;;;;;;;;;;;;;;;;;;5073397;28;20005;-69
2023/10/20 08:08:56;;;;;;;;;;;;;;;;;;5073858;28;20159;-70
2023/10/20 08:11:22;;;;;;;;;;;;;;;;;;5073458;28;19989;-69
2023/10/20 08:13:51;;;;;;;;;;;;;;;;;;5073561;28;19993;-69
2023/10/20 08:16:17;;;;;;;;;;;;;;;;;;5073595;28;19996;-69
2023/10/20 08:18:43;;;;;;;;;;;;;;;;;;5073579;28;19989;-68
2023/10/20 08:21:09;;;;;;;;;;;;;;;;;;5073331;28;19992;-68
2023/10/20 08:23:35;;;;;;;;;;;;;;;;;;5073198;28;19985;-69
2023/10/20 08:26:01;;;;;;;;;;;;;;;;;;5073741;28;19985;-69
2023/10/20 08:28:27;;;;;;;;;;;;;;;;;;5072987;28;20064;-70
2023/10/20 08:30:53;;;;;;;;;;;;;;;;;;5073099;28;19985;-70
2023/10/20 08:33:19;;;;;;;;;;;;;;;;;;5072947;28;19989;-70
2023/10/20 08:35:45;;;;;;;;;;;;;;;;;;5055051;28;20441;-70
2023/10/20 08:38:10;;;;;;;;;;;;;;;;;;5072778;28;20461;-70
2023/10/20 08:40:36;;;;;;;;;;;;;;;;;;5071495;28;19996;-70
2023/10/20 08:43:04;;;;;;;;;;;;;;;;;;5072756;28;19996;-70
2023/10/20 08:45:30;;;;;;;;;;;;;;;;;;5072370;28;19985;-69
2023/10/20 08:47:56;;;;;;;;;;;;;;;;;;5072288;28;20028;-70
2023/10/20 08:50:22;;;;;;;;;;;;;;;;;;5072535;28;19993;-70
2023/10/20 08:52:48;;;;;;;;;;;;;;;;;;5072379;28;19997;-70
2023/10/20 08:55:13;;;;;;;;;;;;;;;;;;5072465;28;19985;-70
2023/10/20 08:57:39;;;;;;;;;;;;;;;;;;5072513;28;19993;-70
2023/10/20 09:00:07;;;;;;;;;;;;;;;;;;5072515;28;19992;-70
2023/10/20 09:02:33;;;;;;;;;;;;;;;;;;5072671;28;19989;-72
2023/10/20 09:04:59;;;;;;;;;;;;;;;;;;5072266;28;20087;-72
2023/10/20 09:07:25;;;;;;;;;;;;;;;;;;5072142;28;19992;-71
2023/10/20 09:09:53;;;;;;;;;;;;;;;;;;5071451;28;20016;-70
2023/10/20 09:12:18;;;;;;;;;;;;;;;;;;5072461;28;19989;-70
2023/10/20 09:14:44;;;;;;;;;;;;;;;;;;5071914;28;20511;-72
2023/10/20 09:17:10;;;;;;;;;;;;;;;;;;5072210;28;20092;-71
2023/10/20 09:19:36;;;;;;;;;;;;;;;;;;5072231;28;19989;-70
2023/10/20 09:22:02;;;;;;;;;;;;;;;;;;5071887;28;19990;-70
2023/10/20 09:24:28;;;;;;;;;;;;;;;;;;5071965;28;19985;-70
2023/10/20 09:26:54;;;;;;;;;;;;;;;;;;5072026;28;19989;-70
2023/10/20 09:29:21;;;;;;;;;;;;;;;;;;5071619;28;20515;-70
2023/10/20 09:31:47;;;;;;;;;;;;;;;;;;5071834;28;19993;-70
2023/10/20 09:34:14;;;;;;;;;;;;;;;;;;5071967;28;19985;-71
2023/10/20 09:36:40;;;;;;;;;;;;;;;;;;5071682;28;19989;-70
2023/10/20 09:39:10;;;;;;;;;;;;;;;;;;5071640;28;20000;-71
2023/10/20 09:41:36;;;;;;;;;;;;;;;;;;5053651;28;20516;-71
2023/10/20 09:44:03;;;;;;;;;;;;;;;;;;5071807;28;20025;-70
2023/10/20 09:46:28;;;;;;;;;;;;;;;;;;5071339;28;19989;-69
2023/10/20 09:48:54;;;;;;;;;;;;;;;;;;5071869;28;20024;-71
2023/10/20 09:51:20;;;;;;;;;;;;;;;;;;5071668;28;20442;-71
2023/10/20 09:53:46;;;;;;;;;;;;;;;;;;5071841;28;19993;-71
2023/10/20 09:56:12;;;;;;;;;;;;;;;;;;5071601;28;19993;-71
2023/10/20 09:58:38;;;;;;;;;;;;;;;;;;5071516;28;19989;-69
2023/10/20 10:01:05;;;;;;;;;;;;;;;;;;5071453;28;20090;-69
2023/10/20 10:03:46;;;;;;;;;;;;;;;;;;5071476;28;20087;-70
2023/10/20 10:06:11;;;;;;;;;;;;;;;;;;5071274;28;20373;-70
2023/10/20 10:08:38;;;;;;;;;;;;;;;;;;5071319;28;20013;-69
2023/10/20 10:11:04;;;;;;;;;;;;;;;;;;5071694;28;20096;-70
2023/10/20 10:13:30;;;;;;;;;;;;;;;;;;5071471;28;20036;-70
2023/10/20 10:15:56;;;;;;;;;;;;;;;;;;5071354;28;19993;-71
2023/10/20 10:18:24;;;;;;;;;;;;;;;;;;5071394;28;20474;-71
2023/10/20 10:20:50;;;;;;;;;;;;;;;;;;5071946;28;20430;-71
2023/10/20 10:23:16;;;;;;;;;;;;;;;;;;5075276;28;19993;-70
2023/10/20 10:25:42;;;;;;;;;;;;;;;;;;5075039;28;19993;-70
2023/10/20 10:28:08;;;;;;;;;;;;;;;;;;5075017;28;19989;-70
2023/10/20 10:30:34;;;;;;;;;;;;;;;;;;5075189;28;20446;-70
2023/10/20 10:33:00;;;;;;;;;;;;;;;;;;5075143;28;19996;-70
2023/10/20 10:35:26;;;;;;;;;;;;;;;;;;5075111;28;20087;-71
2023/10/20 10:37:53;;;;;;;;;;;;;;;;;;5075111;28;20080;-71
2023/10/20 10:40:19;;;;;;;;;;;;;;;;;;5075053;28;19997;-69
2023/10/20 10:42:45;;;;;;;;;;;;;;;;;;5075036;28;19996;-70
2023/10/20 10:45:11;;;;;;;;;;;;;;;;;;5075300;28;19990;-70
2023/10/20 10:47:38;;;;;;;;;;;;;;;;;;5056578;28;20032;-70
2023/10/20 10:50:05;;;;;;;;;;;;;;;;;;5075025;28;20025;-71
2023/10/20 10:52:31;;;;;;;;;;;;;;;;;;5075080;28;19996;-71
2023/10/20 10:54:57;;;;;;;;;;;;;;;;;;5074737;28;19993;-71
2023/10/20 10:57:23;;;;;;;;;;;;;;;;;;5074808;28;19994;-71
2023/10/20 10:59:49;;;;;;;;;;;;;;;;;;5074908;28;20088;-70
2023/10/20 11:02:15;;;;;;;;;;;;;;;;;;5075134;28;20425;-70
2023/10/20 11:04:41;;;;;;;;;;;;;;;;;;5074619;28;20000;-70
2023/10/20 11:07:07;;;;;;;;;;;;;;;;;;5074690;28;19993;-70
2023/10/20 11:09:33;;;;;;;;;;;;;;;;;;5074811;28;20158;-70
2023/10/20 11:11:58;;;;;;;;;;;;;;;;;;5074407;28;19989;-69
2023/10/20 11:14:24;;;;;;;;;;;;;;;;;;5074412;28;20441;-70
2023/10/20 11:16:50;;;;;;;;;;;;;;;;;;5074311;28;19985;-70
2023/10/20 11:19:17;;;;;;;;;;;;;;;;;;5074518;28;19994;-70
2023/10/20 11:21:43;;;;;;;;;;;;;;;;;;5074302;28;19990;-70
2023/10/20 11:24:09;;;;;;;;;;;;;;;;;;5073962;28;19996;-69
2023/10/20 11:26:35;;;;;;;;;;;;;;;;;;5074425;28;20043;-70
2023/10/20 11:29:01;;;;;;;;;;;;;;;;;;5074103;28;20017;-71
2023/10/20 11:31:27;;;;;;;;;;;;;;;;;;5074024;28;19993;-70
2023/10/20 11:33:53;;;;;;;;;;;;;;;;;;5073016;28;20001;-70
2023/10/20 11:36:19;;;;;;;;;;;;;;;;;;5074050;28;19989;-70
2023/10/20 11:38:45;;;;;;;;;;;;;;;;;;5074053;28;20357;-71
2023/10/20 11:41:11;;;;;;;;;;;;;;;;;;5074543;28;19993;-70
2023/10/20 11:43:37;;;;;;;;;;;;;;;;;;5074015;28;20428;-70
2023/10/20 11:46:05;;;;;;;;;;;;;;;;;;5074009;28;19989;-70
2023/10/20 11:48:31;;;;;;;;;;;;;;;;;;5073582;28;20060;-70
2023/10/20 11:50:57;;;;;;;;;;;;;;;;;;5074061;28;20402;-69
2023/10/20 11:53:22;;;;;;;;;;;;;;;;;;5073701;28;20054;-70
2023/10/20 11:55:49;;;;;;;;;;;;;;;;;;5073757;28;20089;-69
2023/10/20 11:58:17;;;;;;;;;;;;;;;;;;5073737;28;20035;-69
2023/10/20 12:00:42;;;;;;;;;;;;;;;;;;5073564;28;20407;-69
2023/10/20 12:03:09;;;;;;;;;;;;;;;;;;5073664;28;20441;-70
2023/10/20 12:05:36;;;;;;;;;;;;;;;;;;5073629;28;20009;-70
2023/10/20 12:08:02;;;;;;;;;;;;;;;;;;5073389;28;19986;-70
2023/10/20 12:10:29;;;;;;;;;;;;;;;;;;5073202;28;19997;-70
2023/10/20 12:12:54;;;;;;;;;;;;;;;;;;5073300;28;20050;-70
2023/10/20 12:15:21;;;;;;;;;;;;;;;;;;5073213;28;19991;-70
2023/10/20 12:17:47;;;;;;;;;;;;;;;;;;5073168;28;20004;-71
2023/10/20 12:20:13;;;;;;;;;;;;;;;;;;5073207;28;19985;-70
2023/10/20 12:22:38;;;;;;;;;;;;;;;;;;5055179;28;20421;-71
2023/10/20 12:25:05;;;;;;;;;;;;;;;;;;5073050;28;19989;-70
2023/10/20 12:27:31;;;;;;;;;;;;;;;;;;5073013;28;20008;-70
2023/10/20 12:29:57;;;;;;;;;;;;;;;;;;5072756;28;20461;-71
2023/10/20 12:32:23;;;;;;;;;;;;;;;;;;5073192;28;19993;-70
2023/10/20 12:34:49;;;;;;;;;;;;;;;;;;5073161;28;20032;-70
2023/10/20 12:37:15;;;;;;;;;;;;;;;;;;5073096;28;20051;-70
2023/10/20 12:39:41;;;;;;;;;;;;;;;;;;5054943;28;20374;-70
2023/10/20 12:42:07;;;;;;;;;;;;;;;;;;5073071;28;19989;-70
2023/10/20 12:44:33;;;;;;;;;;;;;;;;;;5072350;28;20050;-69
2023/10/20 12:46:59;;;;;;;;;;;;;;;;;;5072520;28;20518;-71
2023/10/20 12:49:25;;;;;;;;;;;;;;;;;;5072592;28;20112;-70
2023/10/20 12:51:51;;;;;;;;;;;;;;;;;;5072617;28;20221;-70
2023/10/20 12:54:17;;;;;;;;;;;;;;;;;;5072795;28;19993;-71
2023/10/20 12:56:43;;;;;;;;;;;;;;;;;;5053446;28;19989;-70
2023/10/20 12:59:09;;;;;;;;;;;;;;;;;;5072503;28;20047;-70
2023/10/20 13:01:35;;;;;;;;;;;;;;;;;;5072500;28;20051;-69
2023/10/20 13:04:02;;;;;;;;;;;;;;;;;;5072511;28;19990;-69
2023/10/20 13:06:28;;;;;;;;;;;;;;;;;;5054087;28;20005;-69
2023/10/20 13:08:54;;;;;;;;;;;;;;;;;;5072381;28;20107;-72
2023/10/20 13:11:20;;;;;;;;;;;;;;;;;;5072228;28;19985;-70
2023/10/20 13:13:46;;;;;;;;;;;;;;;;;;5072119;28;19989;-70
2023/10/20 13:16:14;;;;;;;;;;;;;;;;;;5072269;28;20445;-70
2023/10/20 13:18:40;;;;;;;;;;;;;;;;;;5072006;28;19990;-70
2023/10/20 13:21:06;;;;;;;;;;;;;;;;;;5071972;28;20028;-69
2023/10/20 13:23:32;;;;;;;;;;;;;;;;;;5072030;28;20024;-68
2023/10/20 13:25:58;;;;;;;;;;;;;;;;;;5071994;28;20441;-70
2023/10/20 13:28:24;;;;;;;;;;;;;;;;;;5071832;28;20004;-70
2023/10/20 13:30:50;;;;;;;;;;;;;;;;;;5071958;28;20400;-69
2023/10/20 13:33:16;;;;;;;;;;;;;;;;;;5071968;28;20051;-69
2023/10/20 13:35:43;;;;;;;;;;;;;;;;;;5072143;28;20004;-69
2023/10/20 13:38:09;;;;;;;;;;;;;;;;;;5071613;28;20441;-70
2023/10/20 13:40:34;;;;;;;;;;;;;;;;;;5071708;28;19997;-68
2023/10/20 13:43:00;;;;;;;;;;;;;;;;;;5072006;28;19996;-69
2023/10/20 13:45:26;;;;;;;;;;;;;;;;;;5071664;28;20531;-69
2023/10/20 13:47:52;;;;;;;;;;;;;;;;;;5072005;28;20025;-69
2023/10/20 13:50:18;;;;;;;;;;;;;;;;;;5071690;28;20013;-69
2023/10/20 13:52:44;;;;;;;;;;;;;;;;;;5071567;28;19996;-69
2023/10/20 13:55:12;;;;;;;;;;;;;;;;;;5071188;28;19989;-70
2023/10/20 13:57:38;;;;;;;;;;;;;;;;;;5071363;28;20357;-68
2023/10/20 14:00:06;;;;;;;;;;;;;;;;;;5071826;28;19989;-68
2023/10/20 14:02:34;;;;;;;;;;;;;;;;;;5071442;28;19993;-70
2023/10/20 14:05:00;;;;;;;;;;;;;;;;;;5071415;28;20006;-69
2023/10/20 14:07:26;;;;;;;;;;;;;;;;;;5071200;28;19989;-69
2023/10/20 14:09:52;;;;;;;;;;;;;;;;;;5071348;28;20013;-68
2023/10/20 14:12:18;;;;;;;;;;;;;;;;;;5071458;28;20335;-69
2023/10/20 14:14:45;;;;;;;;;;;;;;;;;;5071615;28;19997;-68
2023/10/20 14:17:11;;;;;;;;;;;;;;;;;;5071268;28;19993;-68
2023/10/20 14:19:37;;;;;;;;;;;;;;;;;;5071380;28;19993;-69
2023/10/20 14:22:04;;;;;;;;;;;;;;;;;;5071350;28;19993;-69
2023/10/20 14:24:30;;;;;;;;;;;;;;;;;;5071324;28;19990;-69
2023/10/20 14:27:09;;;;;;;;;;;;;;;;;;;;;
2023/10/20 14:29:35;;;;;;;;;;;;;;;;;;5071135;28;20012;-70
2023/10/20 14:32:01;;;;;;;;;;;;;;;;;;5071099;28;20073;-69
2023/10/20 14:34:27;;;;;;;;;;;;;;;;;;5071083;28;20335;-69
2023/10/20 14:36:54;;;;;;;;;;;;;;;;;;5070856;28;19993;-68
2023/10/20 14:39:20;;;;;;;;;;;;;;;;;;5071271;28;19990;-68
2023/10/20 14:41:45;;;;;;;;;;;;;;;;;;5071191;28;19990;-69
2023/10/20 14:44:11;;;;;;;;;;;;;;;;;;5071063;28;19997;-69
2023/10/20 14:46:39;;;;;;;;;;;;;;;;;;5070803;28;20047;-69
2023/10/20 14:49:05;;;;;;;;;;;;;;;;;;5071379;28;20017;-68
2023/10/20 14:51:31;;;;;;;;;;;;;;;;;;5070999;28;19989;-70
2023/10/20 14:53:58;;;;;;;;;;;;;;;;;;5071098;28;19989;-70
2023/10/20 14:56:23;;;;;;;;;;;;;;;;;;5071123;28;19986;-70
2023/10/20 14:58:49;;;;;;;;;;;;;;;;;;5071099;28;19989;-68
2023/10/20 15:01:15;;;;;;;;;;;;;;;;;;5071156;28;19993;-68
2023/10/20 15:03:41;;;;;;;;;;;;;;;;;;5070997;28;19991;-67
2023/10/20 15:06:07;;;;;;;;;;;;;;;;;;5070809;28;20013;-68
2023/10/20 15:08:33;;;;;;;;;;;;;;;;;;5073121;28;20488;-69
2023/10/20 15:10:59;;;;;;;;;;;;;;;;;;5074680;28;19992;-69
2023/10/20 15:13:25;;;;;;;;;;;;;;;;;;5074451;28;20424;-69
2023/10/20 15:15:51;;;;;;;;;;;;;;;;;;5074694;28;19985;-68
2023/10/20 15:18:18;;;;;;;;;;;;;;;;;;5074549;28;19989;-68
2023/10/20 15:20:44;;;;;;;;;;;;;;;;;;5074474;28;20456;-69
2023/10/20 15:23:10;;;;;;;;;;;;;;;;;;5074455;28;20033;-70
2023/10/20 15:25:37;;;;;;;;;;;;;;;;;;5074612;28;20034;-69
2023/10/20 15:28:04;;;;;;;;;;;;;;;;;;5074290;28;20048;-69
2023/10/20 15:30:30;;;;;;;;;;;;;;;;;;5074026;28;20013;-69
2023/10/20 15:32:56;;;;;;;;;;;;;;;;;;5074192;28;19992;-68
2023/10/20 15:35:21;;;;;;;;;;;;;;;;;;5074086;28;20358;-69
2023/10/20 15:37:52;;;;;;;;;;;;;;;;;;5073962;28;20220;-69
2023/10/20 15:40:17;;;;;;;;;;;;;;;;;;5073922;28;20442;-69
2023/10/20 15:42:43;;;;;;;;;;;;;;;;;;5073796;28;20060;-70
2023/10/20 15:45:11;;;;;;;;;;;;;;;;;;5073880;28;20091;-67
2023/10/20 15:47:37;;;;;;;;;;;;;;;;;;5073667;28;20025;-69
2023/10/20 15:50:03;;;;;;;;;;;;;;;;;;5073609;28;20013;-69
2023/10/20 15:52:29;;;;;;;;;;;;;;;;;;5073918;28;20040;-69
2023/10/20 15:54:55;;;;;;;;;;;;;;;;;;5073762;28;20004;-69
2023/10/20 15:57:21;;;;;;;;;;;;;;;;;;5072606;28;19989;-67
2023/10/20 15:59:47;;;;;;;;;;;;;;;;;;5073041;28;20001;-64
2023/10/20 16:02:13;;;;;;;;;;;;;;;;;;5072761;28;20012;-68
2023/10/20 16:04:39;;;;;;;;;;;;;;;;;;5073132;28;19985;-65
2023/10/20 16:07:06;;;;;;;;;;;;;;;;;;5073503;28;19989;-63
2023/10/20 16:09:32;;;;;;;;;;;;;;;;;;5035019;28;20022;-63
2023/10/20 16:11:58;;;;;;;;;;;;;;;;;;5013275;28;20085;-64
2023/10/20 16:14:24;;;;;;;;;;;;;;;;;;5013004;28;20002;-63
2023/10/20 16:16:50;;;;;;;;;;;;;;;;;;5013331;28;19990;-65
2023/10/20 16:19:16;;;;;;;;;;;;;;;;;;5012909;28;20438;-64
2023/10/20 16:21:42;;;;;;;;;;;;;;;;;;5013374;28;19997;-66
2023/10/20 16:24:08;;;;;;;;;;;;;;;;;;5012969;28;20469;-67
2023/10/20 16:26:35;;;;;;;;;;;;;;;;;;5013150;28;20478;-68
2023/10/20 16:29:01;;;;;;;;;;;;;;;;;;5013018;28;20014;-66
2023/10/20 16:31:27;;;;;;;;;;;;;;;;;;5013108;28;19990;-67
2023/10/20 16:33:53;;;;;;;;;;;;;;;;;;5012849;28;19994;-69
2023/10/20 16:36:19;;;;;;;;;;;;;;;;;;5013075;28;19986;-74
2023/10/20 16:38:46;;;;;;;;;;;;;;;;;;5012827;28;20081;-75
2023/10/20 16:41:12;;;;;;;;;;;;;;;;;;5013040;28;20005;-75
2023/10/20 16:43:38;;;;;;;;;;;;;;;;;;5012833;28;19998;-74
2023/10/20 16:46:04;;;;;;;;;;;;;;;;;;5014132;28;20013;-77
2023/10/20 16:48:30;;;;;;;;;;;;;;;;;;5010562;28;20158;-75
2023/10/20 16:50:56;;;;;;;;;;;;;;;;;;5033946;28;19997;-77
2023/10/20 16:53:22;;;;;;;;;;;;;;;;;;5039652;28;20001;-77
2023/10/20 16:55:48;;;;;;;;;;;;;;;;;;5026992;28;20001;-74
2023/10/20 16:58:14;;;;;;;;;;;;;;;;;;5033681;28;20616;-72
2023/10/20 17:00:40;;;;;;;;;;;;;;;;;;5011101;28;19995;-71
2023/10/20 17:03:06;;;;;;;;;;;;;;;;;;5011001;28;20298;-70
2023/10/20 17:05:32;;;;;;;;;;;;;;;;;;5010736;28;20009;-70
2023/10/20 17:07:58;;;;;;;;;;;;;;;;;;5011074;28;20037;-70
2023/10/20 17:10:24;;;;;;;;;;;;;;;;;;5010756;28;20056;-70